Terminal Aerodrome Forecast
Issued by NWS Sterling, VA

Home | Current Version | Previous Version | Text Only | Print | Product List | Glossary On
Versions: 1 2 3 4 5 6 7 8 9 10 11 12 13 14 15
110
FTUS41 KLWX 281124
TAFMRB
TAF
KMRB 281124Z 2812/2912 VRB03KT 6SM BR FEW250
     FM281300 18004KT P6SM FEW250
     FM281800 16006KT P6SM SCT060
     FM291100 00000KT P6SM BKN150=

USA.gov is the U.S. government's official web portal to all federal, state and local government web resources and services.